Time;durP1;ratioP1;P1;durP2;ratioP2;P2;SDS_P1;SDS_P2;PMS_P1;PMS_P2;Temp;Humidity;BMP_temperature;BMP_pressure;BME280_temperature;BME280_humidity;BME280_pressure;Samples;Min_cycle;Max_cycle;Signal;HPM_P1;HPM_P2
2021/11/03 00:00:57;;;;;;;12.18;7.88;;;6.70;99.90;;;;;;5030652;28;20410;-56
2021/11/03 00:03:23;;;;;;;12.27;8.47;;;6.80;99.90;;;;;;5043298;28;20381;-55
2021/11/03 00:05:50;;;;;;;13.95;8.50;;;6.80;99.90;;;;;;5051620;28;20428;-55
2021/11/03 00:08:25;;;;;;;13.40;8.73;;;6.80;99.90;;;;;;5032920;28;20403;-56
2021/11/03 00:10:52;;;;;;;14.80;8.55;;;6.80;99.90;;;;;;5039064;28;20546;-55
2021/11/03 00:13:19;;;;;;;16.35;9.25;;;6.90;99.90;;;;;;5050805;28;20390;-55
2021/11/03 00:15:46;;;;;;;12.10;7.85;;;7.00;99.90;;;;;;5051565;28;20537;-55
2021/11/03 00:18:11;;;;;;;14.93;8.93;;;7.10;99.90;;;;;;5050689;28;20381;-55
2021/11/03 00:20:38;;;;;;;15.20;8.77;;;7.10;99.90;;;;;;5051468;28;20413;-55
2021/11/03 00:23:04;;;;;;;13.95;8.60;;;7.10;99.90;;;;;;5050464;28;20861;-55
2021/11/03 00:25:30;;;;;;;13.80;8.90;;;7.20;99.90;;;;;;5050064;28;20496;-55
2021/11/03 00:27:56;;;;;;;15.52;8.40;;;7.30;99.90;;;;;;5050521;28;20860;-55
2021/11/03 00:30:21;;;;;;;13.73;8.35;;;7.30;99.90;;;;;;5051271;28;20382;-55
2021/11/03 00:32:48;;;;;;;13.70;8.00;;;7.20;99.90;;;;;;5049984;28;20753;-55
2021/11/03 00:35:15;;;;;;;12.90;8.00;;;7.30;99.90;;;;;;5050378;28;20444;-55
2021/11/03 00:37:41;;;;;;;14.55;8.68;;;7.30;99.90;;;;;;5051056;28;20390;-55
2021/11/03 00:40:07;;;;;;;13.23;8.70;;;7.40;99.90;;;;;;5050348;28;20866;-55
2021/11/03 00:42:33;;;;;;;12.65;7.90;;;7.40;99.90;;;;;;5048398;28;20501;-55
2021/11/03 00:44:59;;;;;;;13.07;8.27;;;7.50;99.90;;;;;;5030204;28;20375;-55
2021/11/03 00:47:25;;;;;;;13.27;7.90;;;7.60;99.90;;;;;;5042591;28;20381;-55
2021/11/03 00:49:51;;;;;;;15.05;8.43;;;7.60;99.90;;;;;;5050867;28;20389;-55
2021/11/03 00:52:17;;;;;;;11.32;7.43;;;7.60;99.90;;;;;;5050119;28;20440;-55
2021/11/03 00:54:42;;;;;;;12.83;7.70;;;7.70;99.90;;;;;;5050557;28;20476;-55
2021/11/03 00:57:08;;;;;;;12.70;7.25;;;7.60;99.90;;;;;;5048458;28;20396;-55
2021/11/03 00:59:34;;;;;;;11.77;7.60;;;7.60;99.90;;;;;;5050346;28;20454;-55
2021/11/03 01:01:59;;;;;;;12.10;7.70;;;7.60;99.90;;;;;;5049372;28;20829;-55
2021/11/03 01:04:25;;;;;;;12.37;7.13;;;7.50;99.90;;;;;;5050393;28;20389;-55
2021/11/03 01:06:51;;;;;;;11.63;7.32;;;7.50;99.90;;;;;;5049298;28;20396;-55
2021/11/03 01:09:17;;;;;;;11.80;6.40;;;7.40;99.90;;;;;;5049044;28;20386;-54
2021/11/03 01:11:43;;;;;;;10.68;6.80;;;7.40;99.90;;;;;;5049697;28;20412;-55
2021/11/03 01:14:09;;;;;;;12.00;6.80;;;7.50;99.90;;;;;;5048938;28;20796;-55
2021/11/03 01:16:36;;;;;;;11.60;6.00;;;7.60;99.90;;;;;;5050523;28;20456;-54
2021/11/03 01:19:03;;;;;;;11.98;6.55;;;7.70;99.90;;;;;;5049700;28;20903;-55
2021/11/03 01:21:29;;;;;;;9.15;5.53;;;7.70;99.90;;;;;;5050077;28;20405;-55
2021/11/03 01:23:54;;;;;;;9.47;5.67;;;7.60;99.90;;;;;;5049799;28;20722;-56
2021/11/03 01:26:20;;;;;;;8.77;5.40;;;7.40;99.90;;;;;;5049813;28;20400;-55
2021/11/03 01:28:46;;;;;;;10.20;6.40;;;7.40;99.90;;;;;;5049984;28;20385;-55
2021/11/03 01:31:12;;;;;;;10.18;5.90;;;7.40;99.90;;;;;;5048001;28;20585;-54
2021/11/03 01:33:38;;;;;;;10.37;5.97;;;7.40;99.90;;;;;;5049956;28;20385;-55
2021/11/03 01:36:04;;;;;;;11.27;7.07;;;7.40;99.90;;;;;;5049016;28;20389;-55
2021/11/03 01:38:30;;;;;;;12.63;6.90;;;7.30;99.90;;;;;;5050452;28;20872;-55
2021/11/03 01:40:56;;;;;;;10.32;6.70;;;7.30;99.90;;;;;;5049057;28;20864;-56
2021/11/03 01:43:59;;;;;;;12.80;6.93;;;7.30;99.90;;;;;;5049833;28;20390;-55
2021/11/03 01:46:29;;;;;;;13.02;7.05;;;7.30;99.90;;;;;;5046633;28;20416;-55
2021/11/03 01:49:23;;;;;;;11.43;7.50;;;7.30;99.90;;;;;;5049187;28;20381;-56
2021/11/03 01:52:05;;;;;;;15.13;7.80;;;7.30;99.90;;;;;;5049867;28;20571;-55
2021/11/03 01:54:47;;;;;;;12.98;7.78;;;7.30;99.90;;;;;;5049865;28;20373;-55
2021/11/03 01:57:19;;;;;;;12.75;7.65;;;7.30;99.90;;;;;;5048546;28;20449;-55
2021/11/03 01:59:49;;;;;;;11.77;7.60;;;7.20;99.90;;;;;;5050045;28;20465;-55
2021/11/03 02:02:19;;;;;;;11.55;6.30;;;7.10;99.90;;;;;;5048667;28;20881;-55
2021/11/03 02:04:45;;;;;;;11.80;7.10;;;7.10;99.90;;;;;;5049402;28;20385;-55
2021/11/03 02:07:20;;;;;;;13.77;7.03;;;7.00;99.90;;;;;;5048212;28;20393;-55
2021/11/03 02:09:46;;;;;;;11.45;6.70;;;7.00;99.90;;;;;;5049347;28;20481;-55
2021/11/03 02:12:24;;;;;;;12.37;6.60;;;7.10;99.90;;;;;;5048585;28;20490;-55
2021/11/03 02:14:51;;;;;;;11.13;6.63;;;7.30;99.90;;;;;;5049546;28;20392;-55
2021/11/03 02:17:18;;;;;;;11.00;5.80;;;7.30;99.90;;;;;;5048631;28;20362;-55
2021/11/03 02:19:45;;;;;;;10.50;5.73;;;7.30;99.90;;;;;;5047865;28;20385;-55
2021/11/03 02:22:23;;;;;;;12.77;6.80;;;7.40;99.90;;;;;;5047130;28;20408;-56
2021/11/03 02:25:11;;;;;;;9.38;5.75;;;7.50;99.90;;;;;;5049027;28;20398;-55
2021/11/03 02:27:41;;;;;;;10.98;6.35;;;7.60;99.90;;;;;;5049020;28;20385;-55
2021/11/03 02:30:10;;;;;;;11.90;6.22;;;7.50;99.90;;;;;;5048374;28;20373;-55
2021/11/03 02:32:37;;;;;;;10.55;6.30;;;7.50;99.90;;;;;;5049345;28;20389;-55
2021/11/03 02:35:04;;;;;;;12.27;6.72;;;7.50;99.90;;;;;;5048377;28;20978;-55
2021/11/03 02:37:30;;;;;;;12.32;6.53;;;7.50;99.90;;;;;;5048887;28;20496;-55
2021/11/03 02:40:12;;;;;;;11.47;6.73;;;7.50;99.90;;;;;;5048607;28;20469;-56
2021/11/03 02:42:44;;;;;;;19.95;10.30;;;7.60;99.90;;;;;;5049058;28;20408;-55
2021/11/03 02:45:16;;;;;;;15.70;6.40;;;7.70;99.90;;;;;;5048582;28;20395;-55
2021/11/03 02:47:41;;;;;;;20.08;10.48;;;7.70;99.90;;;;;;5048918;28;20393;-55
2021/11/03 02:50:11;;;;;;;15.57;8.23;;;7.60;99.90;;;;;;5048252;28;20373;-55
2021/11/03 02:52:38;;;;;;;11.35;6.63;;;7.60;99.90;;;;;;5049400;28;20460;-55
2021/11/03 02:55:08;;;;;;;8.18;5.10;;;7.50;99.90;;;;;;5048690;28;20372;-54
2021/11/03 02:57:36;;;;;;;10.70;4.97;;;7.60;99.90;;;;;;5049252;28;20871;-55
2021/11/03 03:00:07;;;;;;;8.63;5.25;;;7.60;99.90;;;;;;5048475;28;20475;-56
2021/11/03 03:02:32;;;;;;;8.43;4.78;;;7.60;99.90;;;;;;5049019;28;20415;-55
2021/11/03 03:04:58;;;;;;;8.95;5.00;;;7.60;99.90;;;;;;5048182;28;20386;-56
2021/11/03 03:07:24;;;;;;;10.20;6.13;;;7.60;99.90;;;;;;5048495;28;20852;-55
2021/11/03 03:09:49;;;;;;;11.25;5.85;;;7.60;99.90;;;;;;5048807;28;20505;-55
2021/11/03 03:12:18;;;;;;;11.23;5.77;;;7.60;99.90;;;;;;5047860;28;21082;-56
2021/11/03 03:14:46;;;;;;;12.50;6.35;;;7.60;99.90;;;;;;5040631;28;20387;-55
2021/11/03 03:17:13;;;;;;;14.50;7.22;;;7.50;99.90;;;;;;5028718;28;20384;-56
2021/11/03 03:19:41;;;;;;;11.48;6.50;;;7.40;99.90;;;;;;5051003;28;20387;-55
2021/11/03 03:22:07;;;;;;;11.52;7.25;;;7.40;99.90;;;;;;5051574;28;20488;-56
2021/11/03 03:24:34;;;;;;;13.50;7.63;;;7.30;99.90;;;;;;5033301;28;20387;-55
2021/11/03 03:27:00;;;;;;;13.68;7.80;;;7.40;99.90;;;;;;5031676;28;20383;-56
2021/11/03 03:29:26;;;;;;;13.93;8.48;;;7.30;99.90;;;;;;5032221;28;20383;-56
2021/11/03 03:31:52;;;;;;;14.20;8.50;;;7.40;99.90;;;;;;5032311;28;20391;-55
2021/11/03 03:34:21;;;;;;;11.87;7.33;;;7.30;99.90;;;;;;5043283;28;20465;-55
2021/11/03 03:36:48;;;;;;;12.52;6.75;;;7.30;99.90;;;;;;5052441;28;20416;-55
2021/11/03 03:39:18;;;;;;;11.85;6.70;;;7.40;99.90;;;;;;5050208;28;20738;-55
2021/11/03 03:41:47;;;;;;;12.40;6.10;;;7.30;99.90;;;;;;5051862;28;20409;-55
2021/11/03 03:44:13;;;;;;;12.80;6.30;;;7.30;99.90;;;;;;5050329;28;20392;-55
2021/11/03 03:46:39;;;;;;;9.60;6.90;;;7.30;99.90;;;;;;5051863;28;20385;-55
2021/11/03 03:49:05;;;;;;;11.60;6.40;;;7.30;99.90;;;;;;5050805;28;20386;-55
2021/11/03 03:51:31;;;;;;;13.82;6.15;;;7.30;99.90;;;;;;5051883;28;20389;-55
2021/11/03 03:53:57;;;;;;;10.85;5.85;;;7.30;99.90;;;;;;5051370;28;20377;-57
2021/11/03 03:56:23;;;;;;;9.50;5.80;;;7.30;99.90;;;;;;5051274;28;20484;-55
2021/11/03 03:58:49;;;;;;;9.10;5.60;;;7.50;99.90;;;;;;5047695;28;20474;-56
2021/11/03 04:01:17;;;;;;;9.75;5.93;;;7.40;99.90;;;;;;5030909;28;20403;-55
2021/11/03 04:03:44;;;;;;;10.38;6.15;;;7.50;99.90;;;;;;5031633;28;20433;-55
2021/11/03 04:06:12;;;;;;;11.60;6.60;;;7.60;99.90;;;;;;5030970;28;20399;-55
2021/11/03 04:08:39;;;;;;;11.40;6.90;;;7.60;99.90;;;;;;5032080;28;20474;-55
2021/11/03 04:11:05;;;;;;;11.90;7.50;;;7.70;99.90;;;;;;5030459;28;20441;-55
2021/11/03 04:13:30;;;;;;;12.20;6.93;;;7.60;99.90;;;;;;5031598;28;20383;-55
2021/11/03 04:15:57;;;;;;;10.80;7.15;;;7.60;99.90;;;;;;5031494;28;20388;-57
2021/11/03 04:18:23;;;;;;;11.85;7.40;;;7.60;99.90;;;;;;5031346;28;20375;-55
2021/11/03 04:20:49;;;;;;;11.83;6.80;;;7.60;99.90;;;;;;5031414;28;20509;-56
2021/11/03 04:23:15;;;;;;;12.37;7.80;;;7.60;99.90;;;;;;5046069;28;20506;-55
2021/11/03 04:25:41;;;;;;;11.13;7.27;;;7.60;99.90;;;;;;5031190;28;20371;-56
2021/11/03 04:28:07;;;;;;;13.18;6.93;;;7.50;99.90;;;;;;5045927;28;20479;-55
2021/11/03 04:30:34;;;;;;;11.85;7.38;;;7.50;99.90;;;;;;5042827;28;20385;-55
2021/11/03 04:33:00;;;;;;;12.75;7.18;;;7.60;99.90;;;;;;5050560;28;20865;-56
2021/11/03 04:35:26;;;;;;;11.00;6.70;;;7.50;99.90;;;;;;5051297;28;20381;-55
2021/11/03 04:37:52;;;;;;;10.60;6.75;;;7.50;99.90;;;;;;5051003;28;20471;-55
2021/11/03 04:40:21;;;;;;;15.27;7.47;;;7.60;99.90;;;;;;5049740;28;20885;-55
2021/11/03 04:42:46;;;;;;;11.55;6.95;;;7.50;99.90;;;;;;5050918;28;20436;-55
2021/11/03 04:45:13;;;;;;;11.00;6.70;;;7.60;99.90;;;;;;5050296;28;20381;-55
2021/11/03 04:47:40;;;;;;;13.75;7.10;;;7.80;99.90;;;;;;5050916;28;20392;-55
2021/11/03 04:50:08;;;;;;;12.00;6.80;;;7.80;99.90;;;;;;5049542;28;20385;-55
2021/11/03 04:52:33;;;;;;;13.00;7.40;;;7.70;99.90;;;;;;5050748;28;20387;-55
2021/11/03 04:54:59;;;;;;;16.25;7.30;;;7.70;99.90;;;;;;5050423;28;20824;-56
2021/11/03 04:57:25;;;;;;;12.85;7.18;;;7.70;99.90;;;;;;5050415;28;20871;-55
2021/11/03 04:59:51;;;;;;;10.60;6.63;;;7.60;99.90;;;;;;5049413;28;20411;-55
2021/11/03 05:02:17;;;;;;;12.27;6.50;;;7.60;99.90;;;;;;5049527;28;20400;-55
2021/11/03 05:04:43;;;;;;;13.45;7.63;;;7.60;99.90;;;;;;5050077;28;20393;-55
2021/11/03 05:07:10;;;;;;;12.27;7.40;;;7.60;99.90;;;;;;5049028;28;20447;-56
2021/11/03 05:09:36;;;;;;;13.73;7.55;;;7.60;99.90;;;;;;5050165;28;20389;-55
2021/11/03 05:12:02;;;;;;;12.20;8.00;;;7.50;99.90;;;;;;5048566;28;20432;-56
2021/11/03 05:14:27;;;;;;;13.68;8.23;;;7.40;99.90;;;;;;5049551;28;20393;-55
2021/11/03 05:16:53;;;;;;;18.33;10.10;;;7.40;99.90;;;;;;5049355;28;20373;-55
2021/11/03 05:19:22;;;;;;;18.53;10.00;;;7.40;99.90;;;;;;5048481;28;20408;-55
2021/11/03 05:21:51;;;;;;;15.63;9.50;;;7.40;99.90;;;;;;5030339;28;20905;-56
2021/11/03 05:24:17;;;;;;;14.93;8.98;;;7.40;99.90;;;;;;5028864;28;20391;-55
2021/11/03 05:26:43;;;;;;;11.80;7.93;;;7.30;99.90;;;;;;5029853;28;20930;-55
2021/11/03 05:29:09;;;;;;;14.68;8.32;;;7.30;99.90;;;;;;5034224;28;20390;-56
2021/11/03 05:31:35;;;;;;;15.43;8.38;;;7.30;99.90;;;;;;5032560;28;20523;-55
2021/11/03 05:34:01;;;;;;;15.43;8.60;;;7.40;99.90;;;;;;5046383;28;20405;-56
2021/11/03 05:36:29;;;;;;;13.30;8.10;;;7.40;99.90;;;;;;5046398;28;20496;-56
2021/11/03 05:38:56;;;;;;;13.40;7.32;;;7.60;99.90;;;;;;5045354;28;20407;-55
2021/11/03 05:41:22;;;;;;;12.85;7.90;;;7.40;99.90;;;;;;5048853;28;20413;-56
2021/11/03 05:43:48;;;;;;;14.38;8.23;;;8.50;99.90;;;;;;5041393;28;20398;-56
2021/11/03 05:46:16;;;;;;;12.40;7.70;;;7.60;99.90;;;;;;5037957;28;20406;-55
2021/11/03 05:48:45;;;;;;;13.83;7.60;;;7.70;99.90;;;;;;5047240;28;20904;-55
2021/11/03 05:51:11;;;;;;;14.53;7.90;;;7.50;99.90;;;;;;5031049;28;20395;-55
2021/11/03 05:53:38;;;;;;;11.30;7.30;;;7.70;99.90;;;;;;5031994;28;20506;-55
2021/11/03 05:56:08;;;;;;;13.95;7.80;;;7.50;99.90;;;;;;5028313;28;20402;-56
2021/11/03 05:58:35;;;;;;;11.68;7.75;;;7.60;99.90;;;;;;5028694;28;20784;-56
2021/11/03 06:01:02;;;;;;;12.77;7.40;;;7.60;99.90;;;;;;5038102;28;20526;-57
2021/11/03 06:03:28;;;;;;;11.05;7.20;;;7.60;99.90;;;;;;5028988;28;20387;-55
2021/11/03 06:05:53;;;;;;;11.30;6.28;;;7.50;99.90;;;;;;5029026;28;20437;-55
2021/11/03 06:08:19;;;;;;;8.77;5.77;;;7.50;99.90;;;;;;5028194;28;20471;-56
2021/11/03 06:10:47;;;;;;;11.32;6.30;;;7.50;99.90;;;;;;5030156;28;20411;-55
2021/11/03 06:13:19;;;;;;;15.43;7.60;;;7.50;99.90;;;;;;5048492;28;20385;-55
2021/11/03 06:15:45;;;;;;;9.97;5.37;;;7.50;99.90;;;;;;5030744;28;20390;-55
2021/11/03 06:18:11;;;;;;;9.73;5.50;;;7.50;99.90;;;;;;5028756;28;20387;-55
2021/11/03 06:20:37;;;;;;;9.05;5.10;;;7.50;99.90;;;;;;5039134;28;20388;-55
2021/11/03 06:23:03;;;;;;;9.20;4.70;;;7.30;99.90;;;;;;5048134;28;20468;-56
2021/11/03 06:25:29;;;;;;;8.63;4.93;;;7.30;99.90;;;;;;5048576;28;20397;-55
2021/11/03 06:27:56;;;;;;;8.57;4.65;;;7.40;99.90;;;;;;5049276;28;20382;-55
2021/11/03 06:30:26;;;;;;;10.30;4.70;;;7.40;99.90;;;;;;5048218;28;20975;-55
2021/11/03 06:32:51;;;;;;;9.10;4.00;;;7.50;99.90;;;;;;5049144;28;20384;-55
2021/11/03 06:35:18;;;;;;;8.45;4.45;;;7.60;99.90;;;;;;5048054;28;20377;-55
2021/11/03 06:37:43;;;;;;;9.80;4.95;;;7.60;99.90;;;;;;5048786;28;20405;-56
2021/11/03 06:40:12;;;;;;;8.27;4.60;;;7.70;99.90;;;;;;5047843;28;20488;-55
2021/11/03 06:42:38;;;;;;;8.20;4.43;;;7.70;99.90;;;;;;5048832;28;20405;-56
2021/11/03 06:45:06;;;;;;;10.27;5.05;;;7.80;99.90;;;;;;5046931;28;20734;-56
2021/11/03 06:47:33;;;;;;;8.57;4.30;;;7.80;99.90;;;;;;5040443;28;20409;-56
2021/11/03 06:49:59;;;;;;;8.52;4.50;;;7.80;99.90;;;;;;5043122;28;20397;-56
2021/11/03 06:52:26;;;;;;;8.60;4.57;;;7.90;99.90;;;;;;5047747;28;20891;-56
2021/11/03 06:54:52;;;;;;;8.70;4.40;;;7.10;99.90;;;;;;5050362;28;20527;-55
2021/11/03 06:57:18;;;;;;;9.50;4.60;;;7.90;99.90;;;;;;5052102;28;20472;-58
2021/11/03 06:59:44;;;;;;;10.00;4.50;;;8.10;99.90;;;;;;5052657;28;20373;-58
2021/11/03 07:02:15;;;;;;;8.60;4.55;;;8.20;99.90;;;;;;5083742;28;20729;-58
2021/11/03 07:04:41;;;;;;;8.80;4.50;;;8.40;99.90;;;;;;5051845;28;21060;-58
2021/11/03 07:07:06;;;;;;;9.48;4.47;;;8.30;99.90;;;;;;5051414;28;20470;-58
2021/11/03 07:09:32;;;;;;;9.30;4.40;;;8.40;99.90;;;;;;5051058;28;20393;-58
2021/11/03 07:11:58;;;;;;;8.57;4.30;;;8.60;99.90;;;;;;5032381;28;21168;-58
2021/11/03 07:14:23;;;;;;;8.80;4.40;;;8.60;99.90;;;;;;5044432;28;20392;-57
2021/11/03 07:16:49;;;;;;;9.05;5.40;;;8.60;99.90;;;;;;5051602;28;20471;-57
2021/11/03 07:19:15;;;;;;;7.78;4.25;;;8.50;99.90;;;;;;5037818;28;20778;-57
2021/11/03 07:21:41;;;;;;;10.20;5.57;;;8.40;99.90;;;;;;5032868;28;20411;-57
2021/11/03 07:24:07;;;;;;;10.80;5.60;;;8.50;99.90;;;;;;5050180;28;20390;-58
2021/11/03 07:26:33;;;;;;;9.80;5.10;;;8.50;99.90;;;;;;5051932;28;20381;-57
2021/11/03 07:28:58;;;;;;;10.00;4.60;;;8.60;99.90;;;;;;5052078;28;20382;-57
2021/11/03 07:31:24;;;;;;;10.13;5.28;;;8.40;99.90;;;;;;5050511;28;20392;-57
2021/11/03 07:33:50;;;;;;;8.00;4.80;;;8.60;99.90;;;;;;5051376;28;20385;-57
2021/11/03 07:36:20;;;;;;;8.23;4.90;;;8.70;99.90;;;;;;5050482;28;20385;-57
2021/11/03 07:38:46;;;;;;;9.13;4.60;;;8.80;99.90;;;;;;5051328;28;20393;-57
2021/11/03 07:41:12;;;;;;;9.50;4.80;;;8.80;99.90;;;;;;5050565;28;20423;-57
2021/11/03 07:43:39;;;;;;;10.52;4.78;;;8.70;99.90;;;;;;5051162;28;20872;-57
2021/11/03 07:46:04;;;;;;;8.07;4.00;;;8.60;99.90;;;;;;5037299;28;20398;-57
2021/11/03 07:48:30;;;;;;;10.10;4.50;;;8.60;99.90;;;;;;5051468;28;20577;-57
2021/11/03 07:51:02;;;;;;;8.60;4.40;;;8.80;99.90;;;;;;5050906;28;20447;-57
2021/11/03 07:53:29;;;;;;;8.67;4.60;;;8.90;99.90;;;;;;5050739;28;20377;-57
2021/11/03 07:55:58;;;;;;;11.30;5.40;;;8.90;99.90;;;;;;5050719;28;20369;-57
2021/11/03 07:58:27;;;;;;;10.77;4.90;;;9.10;99.90;;;;;;5050229;28;20719;-57
2021/11/03 08:00:55;;;;;;;8.50;4.28;;;9.10;99.90;;;;;;5050660;28;20420;-57
2021/11/03 08:03:21;;;;;;;9.77;3.55;;;9.10;99.90;;;;;;5048199;28;20406;-57
2021/11/03 08:05:50;;;;;;;9.77;4.65;;;9.10;99.90;;;;;;5049538;28;20388;-57
2021/11/03 08:08:18;;;;;;;9.10;4.20;;;9.20;99.90;;;;;;5050029;28;20393;-57
2021/11/03 08:10:46;;;;;;;7.00;3.70;;;9.30;99.90;;;;;;5050178;28;20415;-57
2021/11/03 08:13:16;;;;;;;6.13;2.83;;;9.30;99.90;;;;;;5050038;28;20869;-57
2021/11/03 08:15:44;;;;;;;7.03;2.40;;;9.40;99.90;;;;;;5050892;28;20385;-57
2021/11/03 08:18:10;;;;;;;5.47;2.30;;;9.40;99.90;;;;;;5050097;28;20457;-57
2021/11/03 08:20:37;;;;;;;5.82;2.33;;;9.40;99.90;;;;;;5049793;28;20397;-57
2021/11/03 08:23:04;;;;;;;7.22;2.40;;;9.30;99.90;;;;;;5050431;28;20420;-58
2021/11/03 08:25:30;;;;;;;5.50;2.00;;;9.30;99.90;;;;;;5049554;28;20388;-57
2021/11/03 08:27:56;;;;;;;4.90;1.90;;;9.50;99.90;;;;;;5050687;28;20369;-57
2021/11/03 08:30:22;;;;;;;5.00;1.88;;;9.50;99.90;;;;;;5049702;28;21183;-57
2021/11/03 08:32:53;;;;;;;5.30;1.60;;;9.70;99.90;;;;;;5050593;28;20443;-57
2021/11/03 08:35:22;;;;;;;5.00;2.00;;;9.80;99.90;;;;;;5046651;28;20392;-57
2021/11/03 08:37:50;;;;;;;5.90;1.60;;;9.70;99.90;;;;;;5050560;28;20398;-57
2021/11/03 08:40:20;;;;;;;4.25;1.40;;;9.80;99.90;;;;;;5048029;28;20408;-57
2021/11/03 08:42:47;;;;;;;5.30;1.90;;;9.70;99.90;;;;;;5043458;28;20443;-57
2021/11/03 08:45:15;;;;;;;6.45;1.70;;;9.80;99.90;;;;;;5045730;28;20415;-58
2021/11/03 08:47:42;;;;;;;4.60;1.77;;;9.80;99.90;;;;;;5046476;28;20461;-57
2021/11/03 08:50:12;;;;;;;4.80;1.60;;;9.80;99.90;;;;;;5050302;28;20385;-57
2021/11/03 08:52:38;;;;;;;5.45;1.85;;;10.00;99.90;;;;;;5037777;28;20417;-57
2021/11/03 08:55:04;;;;;;;5.40;1.80;;;10.00;99.90;;;;;;5037694;28;20833;-58
2021/11/03 08:57:33;;;;;;;4.30;1.50;;;10.10;99.90;;;;;;5047841;28;20393;-57
2021/11/03 08:59:59;;;;;;;4.60;1.70;;;10.10;99.90;;;;;;5049566;28;20443;-57
2021/11/03 09:02:25;;;;;;;4.50;1.60;;;10.20;99.90;;;;;;5049066;28;20413;-57
2021/11/03 09:04:52;;;;;;;4.30;1.60;;;10.40;99.90;;;;;;5050479;28;20484;-58
2021/11/03 09:07:18;;;;;;;4.40;1.80;;;10.40;99.90;;;;;;5047725;28;20593;-57
2021/11/03 09:09:47;;;;;;;5.47;1.80;;;10.60;99.90;;;;;;5041154;28;20412;-57
2021/11/03 09:12:15;;;;;;;4.55;1.52;;;10.70;99.90;;;;;;5048861;28;20376;-57
2021/11/03 09:14:41;;;;;;;4.80;1.60;;;10.60;99.90;;;;;;5045103;28;20500;-57
2021/11/03 09:17:09;;;;;;;6.90;2.92;;;10.80;99.90;;;;;;5047653;28;20397;-57
2021/11/03 09:19:36;;;;;;;9.60;2.00;;;11.00;99.90;;;;;;5049886;28;20892;-57
2021/11/03 09:22:02;;;;;;;4.95;1.90;;;11.10;99.90;;;;;;5049184;28;20509;-57
2021/11/03 09:24:27;;;;;;;5.38;1.60;;;11.20;99.90;;;;;;5045019;28;20410;-57
2021/11/03 09:26:53;;;;;;;6.00;2.00;;;11.40;99.90;;;;;;5044484;28;20878;-57
2021/11/03 09:29:18;;;;;;;6.23;2.10;;;11.60;99.90;;;;;;5048322;28;20389;-57
2021/11/03 09:31:44;;;;;;;5.85;2.15;;;11.70;99.90;;;;;;5047886;28;20402;-57
2021/11/03 09:34:12;;;;;;;4.55;1.80;;;12.00;99.90;;;;;;5051697;28;20389;-58
2021/11/03 09:36:41;;;;;;;7.00;2.90;;;12.30;99.90;;;;;;5055149;28;20384;-57
2021/11/03 09:39:07;;;;;;;6.85;2.38;;;12.60;99.90;;;;;;5045052;28;20439;-58
2021/11/03 09:41:52;;;;;;;6.57;2.30;;;12.80;99.90;;;;;;5042547;28;20491;-57
2021/11/03 09:44:23;;;;;;;6.63;1.90;;;12.90;99.90;;;;;;5047442;28;20403;-58
2021/11/03 09:46:57;;;;;;;6.18;2.30;;;13.00;99.90;;;;;;5040956;28;20541;-57
2021/11/03 09:49:25;;;;;;;7.53;3.13;;;12.90;99.90;;;;;;5051933;28;20441;-57
2021/11/03 09:51:59;;;;;;;7.82;3.03;;;12.60;99.90;;;;;;5051364;28;20401;-57
2021/11/03 09:54:29;;;;;;;7.22;3.30;;;12.40;99.90;;;;;;5043455;28;20548;-58
2021/11/03 09:57:14;;;;;;;6.57;2.80;;;12.30;99.90;;;;;;5046644;28;20417;-57
2021/11/03 09:59:57;;;;;;;7.07;3.30;;;12.40;99.90;;;;;;5049811;28;20417;-58
2021/11/03 10:02:47;;;;;;;6.82;2.80;;;12.50;99.90;;;;;;5044974;28;20421;-58
2021/11/03 10:05:28;;;;;;;6.60;2.75;;;12.60;99.90;;;;;;5046054;28;20403;-58
2021/11/03 10:07:56;;;;;;;7.30;2.60;;;12.70;99.90;;;;;;5056378;28;20407;-57
2021/11/03 10:10:24;;;;;;;5.85;2.47;;;12.60;99.90;;;;;;5046251;28;20804;-57
2021/11/03 10:12:51;;;;;;;5.72;2.28;;;12.50;99.90;;;;;;5043211;28;20833;-57
2021/11/03 10:15:21;;;;;;;6.82;3.00;;;12.60;99.90;;;;;;5050961;28;20762;-58
2021/11/03 10:18:17;;;;;;;7.22;3.15;;;12.50;99.90;;;;;;5045732;28;20942;-57
2021/11/03 10:20:59;;;;;;;5.90;2.70;;;12.30;99.90;;;;;;5044503;28;20854;-57
2021/11/03 10:23:28;;;;;;;7.30;2.70;;;12.20;99.90;;;;;;5046404;28;20594;-57
2021/11/03 10:26:06;;;;;;;5.95;2.65;;;12.10;99.90;;;;;;5048443;28;20431;-58
2021/11/03 10:28:41;;;;;;;9.93;3.40;;;11.90;99.90;;;;;;5046305;28;20402;-57
2021/11/03 10:31:21;;;;;;;6.80;2.90;;;11.70;99.90;;;;;;5056169;28;20396;-58
2021/11/03 10:33:49;;;;;;;6.80;3.40;;;11.50;99.90;;;;;;5061184;28;20368;-58
2021/11/03 10:36:23;;;;;;;8.40;3.50;;;11.30;99.90;;;;;;5057422;28;20747;-57
2021/11/03 10:38:55;;;;;;;8.60;3.38;;;11.40;99.90;;;;;;5050234;28;20537;-58
2021/11/03 10:41:33;;;;;;;8.50;3.70;;;11.50;99.90;;;;;;5065044;28;20408;-57
2021/11/03 10:44:22;;;;;;;9.95;3.80;;;11.50;99.90;;;;;;5059601;28;20393;-58
2021/11/03 10:46:55;;;;;;;8.77;3.72;;;11.60;99.90;;;;;;5060403;28;20473;-56
2021/11/03 10:49:32;;;;;;;9.40;3.58;;;11.60;99.90;;;;;;5058341;28;20387;-57
2021/11/03 10:52:07;;;;;;;12.10;4.00;;;11.60;99.90;;;;;;5071979;28;20419;-57
2021/11/03 10:54:50;;;;;;;10.20;5.30;;;11.60;99.90;;;;;;5054813;28;20381;-56
2021/11/03 10:57:26;;;;;;;8.88;5.25;;;11.70;99.90;;;;;;5050144;28;20405;-57
2021/11/03 11:00:01;;;;;;;9.27;5.80;;;11.80;99.90;;;;;;5052960;28;20381;-56
2021/11/03 11:02:30;;;;;;;10.95;4.53;;;11.90;99.90;;;;;;5052218;28;20438;-57
2021/11/03 11:04:58;;;;;;;8.85;3.92;;;12.00;99.90;;;;;;5050836;28;20407;-57
2021/11/03 11:07:33;;;;;;;13.50;4.00;;;11.70;99.90;;;;;;5057857;28;20418;-56
2021/11/03 11:10:41;;;;;;;7.93;4.03;;;11.50;99.90;;;;;;5051269;28;20484;-56
2021/11/03 11:13:16;;;;;;;9.93;4.00;;;11.70;99.90;;;;;;5056606;28;20388;-57
2021/11/03 11:15:53;;;;;;;7.97;3.50;;;11.90;99.90;;;;;;5048563;28;20407;-57
2021/11/03 11:18:30;;;;;;;8.35;3.80;;;11.60;99.90;;;;;;5054870;28;20408;-59
2021/11/03 11:21:00;;;;;;;7.38;3.80;;;11.40;99.90;;;;;;5056195;28;20388;-57
2021/11/03 11:23:36;;;;;;;12.93;3.97;;;11.40;99.90;;;;;;5052726;28;20461;-56
2021/11/03 11:26:23;;;;;;;7.88;4.20;;;11.50;99.90;;;;;;5057282;28;20381;-57
2021/11/03 11:29:08;;;;;;;8.60;4.00;;;11.60;99.90;;;;;;5057901;28;20415;-56
2021/11/03 11:31:36;;;;;;;8.55;4.30;;;11.50;99.90;;;;;;5058277;28;20489;-57
2021/11/03 11:34:11;;;;;;;8.48;4.60;;;11.40;99.90;;;;;;5056550;28;20394;-57
2021/11/03 11:37:06;;;;;;;8.85;4.32;;;11.40;99.90;;;;;;5056699;28;20442;-57
2021/11/03 11:39:31;;;;;;;11.17;4.27;;;11.40;99.90;;;;;;5048685;28;20466;-56
2021/11/03 11:42:24;;;;;;;8.55;4.20;;;11.40;99.90;;;;;;5056395;28;20411;-56
2021/11/03 11:44:53;;;;;;;8.57;4.32;;;11.40;99.90;;;;;;5053570;28;20397;-56
2021/11/03 11:47:37;;;;;;;8.80;3.72;;;11.60;99.90;;;;;;5054501;28;20396;-56
2021/11/03 11:50:21;;;;;;;8.02;3.90;;;11.60;99.90;;;;;;5057077;28;20375;-57
2021/11/03 11:52:48;;;;;;;8.48;4.50;;;11.60;99.90;;;;;;5053151;28;20473;-56
2021/11/03 11:55:13;;;;;;;12.52;5.47;;;11.60;99.90;;;;;;5053209;28;20385;-57
2021/11/03 11:57:42;;;;;;;12.07;5.33;;;11.80;99.90;;;;;;5054824;28;20412;-56
2021/11/03 12:00:08;;;;;;;9.00;4.68;;;11.90;99.90;;;;;;5055637;28;20381;-57
2021/11/03 12:02:46;;;;;;;9.43;4.75;;;12.00;99.90;;;;;;5054153;28;20486;-57
2021/11/03 12:05:22;;;;;;;10.50;4.77;;;12.00;99.90;;;;;;5054063;28;20382;-58
2021/11/03 12:08:28;;;;;;;8.32;4.40;;;11.90;99.90;;;;;;5050558;28;20424;-57
2021/11/03 12:10:59;;;;;;;8.98;5.00;;;11.80;99.90;;;;;;5022694;28;20439;-56
2021/11/03 12:13:29;;;;;;;9.98;4.90;;;11.80;99.90;;;;;;5043777;28;20440;-57
2021/11/03 12:15:55;;;;;;;8.57;4.83;;;11.90;99.90;;;;;;5046485;28;20424;-56
2021/11/03 12:18:26;;;;;;;11.02;5.28;;;11.90;99.90;;;;;;5048925;28;20470;-57
2021/11/03 12:21:23;;;;;;;9.40;4.40;;;11.90;99.90;;;;;;5048703;28;20413;-56
2021/11/03 12:23:54;;;;;;;7.78;4.65;;;12.00;99.90;;;;;;5054296;28;20903;-57
2021/11/03 12:26:25;;;;;;;8.43;4.40;;;12.00;99.90;;;;;;5047957;28;20762;-56
2021/11/03 12:29:15;;;;;;;9.23;4.40;;;11.80;99.90;;;;;;5052511;28;20811;-57
2021/11/03 12:31:51;;;;;;;8.50;4.40;;;11.60;99.90;;;;;;5046863;28;20415;-57
2021/11/03 12:34:16;;;;;;;7.57;4.70;;;11.30;99.90;;;;;;5044606;28;20435;-57
2021/11/03 12:36:42;;;;;;;8.23;4.93;;;11.30;99.90;;;;;;5049313;28;20480;-57
2021/11/03 12:39:12;;;;;;;9.70;4.90;;;11.30;99.90;;;;;;5040814;28;20446;-57
2021/11/03 12:41:41;;;;;;;8.20;4.63;;;11.30;99.90;;;;;;5051145;28;20401;-57
2021/11/03 12:44:20;;;;;;;9.70;4.97;;;11.50;99.90;;;;;;5052451;28;20447;-57
2021/11/03 12:46:45;;;;;;;7.75;4.10;;;11.40;99.90;;;;;;5047874;28;20540;-57
2021/11/03 12:49:16;;;;;;;11.00;4.50;;;11.20;99.90;;;;;;5048811;28;20958;-57
2021/11/03 12:51:56;;;;;;;11.05;6.38;;;11.10;99.90;;;;;;5051313;28;20389;-56
2021/11/03 12:54:29;;;;;;;9.20;4.60;;;11.20;99.90;;;;;;5045769;28;20439;-56
2021/11/03 12:57:20;;;;;;;9.73;5.50;;;11.20;99.90;;;;;;5049044;28;20394;-56
2021/11/03 13:00:04;;;;;;;10.55;5.95;;;11.20;99.90;;;;;;5082519;28;20718;-57